createdAt,value
2023-05-21T00:02:22.392Z,10.96
2023-05-21T00:04:49.378Z,10.95
2023-05-21T00:07:16.443Z,10.95
2023-05-21T00:09:43.336Z,10.95
2023-05-21T00:12:10.218Z,10.96
2023-05-21T00:14:37.163Z,10.90
2023-05-21T00:17:04.170Z,10.94
2023-05-21T00:19:32.851Z,10.96
2023-05-21T00:22:02.411Z,10.96
2023-05-21T00:24:29.648Z,10.96
2023-05-21T00:26:56.802Z,10.94
2023-05-21T00:29:24.044Z,10.95
2023-05-21T00:31:52.361Z,10.97
2023-05-21T00:34:19.391Z,10.95
2023-05-21T00:36:46.703Z,10.98
2023-05-21T00:39:13.795Z,10.98
2023-05-21T00:41:40.720Z,10.99
2023-05-21T00:44:07.789Z,10.99
2023-05-21T00:46:35.220Z,10.98
2023-05-21T00:49:02.170Z,10.98
2023-05-21T00:51:32.916Z,11.01
2023-05-21T00:54:01.125Z,10.98
2023-05-21T00:56:28.488Z,11.01
2023-05-21T00:58:57.376Z,11.02
2023-05-21T01:01:27.945Z,11.02
2023-05-21T01:03:57.936Z,11.04
2023-05-21T01:06:25.457Z,11.05
2023-05-21T01:08:52.552Z,11.05
2023-05-21T01:11:21.728Z,11.04
2023-05-21T01:13:50.193Z,11.02
2023-05-21T01:16:17.976Z,11.00
2023-05-21T01:18:45.393Z,10.97
2023-05-21T01:21:12.634Z,10.97
2023-05-21T01:23:39.661Z,10.97
2023-05-21T01:26:07.453Z,10.98
2023-05-21T01:28:34.729Z,10.98
2023-05-21T01:31:12.140Z,11.00
2023-05-21T01:33:47.508Z,10.99
2023-05-21T01:36:29.266Z,10.96
2023-05-21T01:39:20.251Z,11.01
2023-05-21T01:41:49.205Z,11.00
2023-05-21T01:44:18.959Z,11.03
2023-05-21T01:46:45.876Z,11.01
2023-05-21T01:49:13.941Z,11.03
2023-05-21T01:51:41.431Z,11.01
2023-05-21T01:54:08.416Z,11.02
2023-05-21T01:56:37.165Z,11.03
2023-05-21T01:59:04.282Z,11.03
2023-05-21T02:01:31.301Z,11.04
2023-05-21T02:03:58.476Z,11.04
2023-05-21T02:06:25.430Z,11.07
2023-05-21T02:08:52.409Z,11.08
2023-05-21T02:11:19.250Z,11.09
2023-05-21T02:13:46.358Z,11.10
2023-05-21T02:16:15.240Z,11.11
2023-05-21T02:18:46.527Z,11.12
2023-05-21T02:21:13.401Z,11.11
2023-05-21T02:23:40.317Z,11.11
2023-05-21T02:26:07.207Z,11.12
2023-05-21T02:28:34.827Z,11.14
2023-05-21T02:31:01.758Z,11.14
2023-05-21T02:33:28.652Z,11.15
2023-05-21T02:35:55.573Z,11.16
2023-05-21T02:38:23.372Z,11.14
2023-05-21T02:40:53.722Z,11.16
2023-05-21T02:43:20.935Z,11.17
2023-05-21T02:45:48.018Z,11.18
2023-05-21T02:48:15.230Z,11.20
2023-05-21T02:50:42.089Z,11.22
2023-05-21T02:53:09.003Z,11.21
2023-05-21T02:55:36.275Z,11.21
2023-05-21T02:58:03.280Z,11.21
2023-05-21T03:00:30.143Z,11.20
2023-05-21T03:02:57.138Z,11.20
2023-05-21T03:05:24.567Z,11.21
2023-05-21T03:07:51.581Z,11.22
2023-05-21T03:10:18.502Z,11.24
2023-05-21T03:12:45.729Z,11.23
2023-05-21T03:15:15.036Z,11.21
2023-05-21T03:17:42.505Z,11.21
2023-05-21T03:20:16.186Z,11.29
2023-05-21T03:22:44.603Z,11.33
2023-05-21T03:25:12.897Z,11.36
2023-05-21T03:27:40.588Z,11.27
2023-05-21T03:30:07.944Z,11.31
2023-05-21T03:32:38.045Z,11.31
2023-05-21T03:35:05.455Z,11.31
2023-05-21T03:37:32.819Z,11.35
2023-05-21T03:39:59.702Z,11.40
2023-05-21T03:42:26.680Z,11.40
2023-05-21T03:44:53.611Z,11.42
2023-05-21T03:47:20.667Z,11.43
2023-05-21T03:49:47.723Z,11.40
2023-05-21T03:52:14.603Z,11.40
2023-05-21T03:54:41.517Z,11.39
2023-05-21T03:57:08.481Z,11.42
2023-05-21T03:59:35.488Z,11.44
2023-05-21T04:02:02.547Z,11.47
2023-05-21T04:04:29.844Z,11.50
2023-05-21T04:06:56.862Z,11.52
2023-05-21T04:09:23.722Z,11.52
2023-05-21T04:11:50.717Z,11.55
2023-05-21T04:14:17.532Z,11.61
2023-05-21T04:16:44.407Z,11.68
2023-05-21T04:19:11.825Z,11.71
2023-05-21T04:21:38.769Z,11.74
2023-05-21T04:24:05.751Z,11.78
2023-05-21T04:26:35.461Z,11.78
2023-05-21T04:29:03.898Z,11.75
2023-05-21T04:31:32.563Z,11.71
2023-05-21T04:33:59.658Z,11.72
2023-05-21T04:36:29.115Z,11.70
2023-05-21T04:38:56.245Z,11.70
2023-05-21T04:41:23.200Z,11.73
2023-05-21T04:43:55.333Z,11.71
2023-05-21T04:46:28.052Z,11.71
2023-05-21T04:48:58.271Z,11.72
2023-05-21T04:51:26.913Z,11.69
2023-05-21T04:53:54.026Z,11.68
2023-05-21T04:56:22.450Z,11.66
2023-05-21T04:58:49.582Z,11.61
2023-05-21T05:01:16.590Z,11.55
2023-05-21T05:03:43.490Z,11.51
2023-05-21T05:06:10.637Z,11.52
2023-05-21T05:08:37.543Z,11.56
2023-05-21T05:11:04.667Z,11.63
2023-05-21T05:13:31.518Z,11.68
2023-05-21T05:15:58.371Z,11.71
2023-05-21T05:18:25.221Z,11.73
2023-05-21T05:20:52.151Z,11.73
2023-05-21T05:23:19.416Z,11.75
2023-05-21T05:25:46.565Z,11.77
2023-05-21T05:28:13.430Z,11.77
2023-05-21T05:30:40.533Z,11.77
2023-05-21T05:33:07.629Z,11.72
2023-05-21T05:35:34.831Z,11.71
2023-05-21T05:38:01.813Z,11.74
2023-05-21T05:40:28.744Z,11.81
2023-05-21T05:42:55.585Z,11.85
2023-05-21T05:45:22.450Z,11.94
2023-05-21T05:47:49.332Z,11.99
2023-05-21T05:50:16.171Z,12.09
2023-05-21T05:52:43.027Z,12.23
2023-05-21T05:55:12.801Z,12.35
2023-05-21T05:57:39.657Z,12.41
2023-05-21T06:00:07.240Z,12.44
2023-05-21T06:02:34.127Z,12.47
2023-05-21T06:05:01.332Z,12.50
2023-05-21T06:07:29.392Z,12.53
2023-05-21T06:09:56.237Z,12.56
2023-05-21T06:12:23.215Z,12.63
2023-05-21T06:14:51.040Z,12.69
2023-05-21T06:17:17.977Z,12.78
2023-05-21T06:19:45.884Z,12.82
2023-05-21T06:22:12.999Z,12.91
2023-05-21T06:24:39.968Z,13.04
2023-05-21T06:27:06.806Z,13.16
2023-05-21T06:29:33.696Z,13.15
2023-05-21T06:32:01.786Z,13.18
2023-05-21T06:34:31.683Z,13.20
2023-05-21T06:36:58.575Z,13.20
2023-05-21T06:39:27.238Z,13.24
2023-05-21T06:41:54.586Z,13.28
2023-05-21T06:44:21.434Z,13.34
2023-05-21T06:46:48.288Z,13.31
2023-05-21T06:49:15.330Z,13.38
2023-05-21T06:51:42.254Z,13.42
2023-05-21T06:54:09.116Z,13.50
2023-05-21T06:56:36.214Z,13.51
2023-05-21T06:59:03.073Z,13.56
2023-05-21T07:01:30.817Z,13.60
2023-05-21T07:03:57.732Z,13.64
2023-05-21T07:06:24.579Z,13.66
2023-05-21T07:08:51.922Z,13.76
2023-05-21T07:11:18.795Z,13.91
2023-05-21T07:13:45.721Z,13.98
2023-05-21T07:16:12.843Z,14.02
2023-05-21T07:18:39.837Z,14.03
2023-05-21T07:21:06.731Z,14.04
2023-05-21T07:23:33.614Z,14.09
2023-05-21T07:26:00.659Z,14.10
2023-05-21T07:28:27.725Z,14.20
2023-05-21T07:30:54.725Z,14.22
2023-05-21T07:33:22.835Z,14.23
2023-05-21T07:35:49.752Z,14.23
2023-05-21T07:38:17.701Z,14.30
2023-05-21T07:40:44.618Z,14.38
2023-05-21T07:43:12.220Z,14.37
2023-05-21T07:45:39.271Z,14.32
2023-05-21T07:48:06.614Z,14.36
2023-05-21T07:50:33.504Z,14.59
2023-05-21T07:53:00.860Z,14.63
2023-05-21T07:55:27.756Z,14.73
2023-05-21T07:57:54.635Z,14.82
2023-05-21T08:00:24.071Z,15.04
2023-05-21T08:02:52.534Z,15.32
2023-05-21T08:05:21.307Z,15.49
2023-05-21T08:07:48.273Z,15.55
2023-05-21T08:10:16.188Z,15.62
2023-05-21T08:12:44.723Z,15.78
2023-05-21T08:15:11.781Z,15.86
2023-05-21T08:17:38.675Z,15.65
2023-05-21T08:20:06.373Z,15.42
2023-05-21T08:22:33.388Z,15.31
2023-05-21T08:25:00.233Z,15.35
2023-05-21T08:27:27.050Z,15.26
2023-05-21T08:29:54.018Z,15.21
2023-05-21T08:32:20.884Z,15.21
2023-05-21T08:34:47.754Z,15.48
2023-05-21T08:37:14.680Z,15.82
2023-05-21T08:39:41.516Z,16.14
2023-05-21T08:42:45.711Z,16.33
2023-05-21T08:45:14.614Z,16.51
2023-05-21T08:47:44.829Z,16.79
2023-05-21T08:50:13.867Z,16.93
2023-05-21T08:52:41.276Z,16.78
2023-05-21T08:55:09.540Z,16.84
2023-05-21T08:57:37.187Z,17.12
2023-05-21T09:00:05.533Z,17.09
2023-05-21T09:02:34.308Z,16.74
2023-05-21T09:05:03.472Z,16.70
2023-05-21T09:07:39.500Z,16.61
2023-05-21T09:10:13.088Z,16.55
2023-05-21T09:12:40.390Z,16.58
2023-05-21T09:15:07.983Z,16.49
2023-05-21T09:17:35.124Z,16.60
2023-05-21T09:20:14.880Z,16.62
2023-05-21T09:22:43.088Z,16.85
2023-05-21T09:25:12.243Z,17.04
2023-05-21T09:27:39.837Z,17.14
2023-05-21T09:30:12.326Z,17.04
2023-05-21T09:32:40.552Z,16.98
2023-05-21T09:35:09.694Z,16.99
2023-05-21T09:37:44.131Z,17.00
2023-05-21T09:40:16.613Z,17.07
2023-05-21T09:42:47.083Z,17.23
2023-05-21T09:45:22.027Z,17.21
2023-05-21T09:47:50.232Z,17.14
2023-05-21T09:50:24.541Z,17.22
2023-05-21T09:52:55.643Z,17.21
2023-05-21T09:55:24.119Z,17.06
2023-05-21T09:57:51.626Z,16.79
2023-05-21T10:00:21.435Z,16.76
2023-05-21T10:02:49.976Z,16.72
2023-05-21T10:05:17.894Z,16.71
2023-05-21T10:07:50.364Z,16.67
2023-05-21T10:10:20.128Z,16.61
2023-05-21T10:12:51.919Z,16.50
2023-05-21T10:15:23.960Z,16.44
2023-05-21T10:17:52.852Z,16.39
2023-05-21T10:20:21.058Z,16.38
2023-05-21T10:22:48.474Z,16.37
2023-05-21T10:25:16.158Z,16.42
2023-05-21T10:27:43.412Z,16.43
2023-05-21T10:30:10.894Z,16.46
2023-05-21T10:32:41.204Z,16.39
2023-05-21T10:35:09.491Z,16.38
2023-05-21T10:37:37.041Z,16.36
2023-05-21T10:40:04.656Z,16.36
2023-05-21T10:42:32.069Z,16.28
2023-05-21T10:45:46.407Z,16.29
2023-05-21T10:48:19.106Z,16.35
2023-05-21T10:51:18.646Z,16.36
2023-05-21T10:54:17.305Z,16.41
2023-05-21T10:56:54.114Z,16.72
2023-05-21T10:59:34.546Z,17.01
2023-05-21T11:02:01.961Z,17.13
2023-05-21T11:04:30.546Z,17.15
2023-05-21T11:07:00.025Z,17.08
2023-05-21T11:09:27.741Z,16.92
2023-05-21T11:11:59.029Z,16.78
2023-05-21T11:14:36.730Z,16.61
2023-05-21T11:17:09.774Z,16.46
2023-05-21T11:19:37.976Z,16.36
2023-05-21T11:22:21.783Z,16.27
2023-05-21T11:24:51.122Z,16.28
2023-05-21T11:27:42.480Z,16.32
2023-05-21T11:30:16.776Z,16.69
2023-05-21T11:33:22.398Z,17.96
2023-05-21T11:35:55.238Z,18.58
2023-05-21T11:38:22.120Z,18.25
2023-05-21T11:40:55.734Z,17.82
2023-05-21T11:43:23.051Z,17.48
2023-05-21T11:45:52.756Z,17.29
2023-05-21T11:48:21.576Z,17.10
2023-05-21T11:50:48.790Z,16.96
2023-05-21T11:53:15.840Z,16.89
2023-05-21T11:55:43.806Z,16.85
2023-05-21T11:58:13.830Z,16.74
2023-05-21T12:00:41.280Z,16.67
2023-05-21T12:03:12.960Z,16.59
2023-05-21T12:05:49.873Z,16.68
2023-05-21T12:08:27.249Z,16.72
2023-05-21T12:11:00.014Z,16.67
2023-05-21T12:13:27.968Z,16.59
2023-05-21T12:15:54.927Z,16.49
2023-05-21T12:18:22.362Z,16.43
2023-05-21T12:20:49.278Z,16.36
2023-05-21T12:23:25.997Z,16.35
2023-05-21T12:25:53.902Z,16.36
2023-05-21T12:28:24.956Z,16.38
2023-05-21T12:30:51.834Z,16.42
2023-05-21T12:33:19.186Z,16.49
2023-05-21T12:35:50.539Z,16.54
2023-05-21T12:38:17.756Z,16.63
2023-05-21T12:40:45.851Z,16.79
2023-05-21T12:43:13.253Z,16.95
2023-05-21T12:45:40.756Z,17.06
2023-05-21T12:48:07.869Z,17.20
2023-05-21T12:50:36.169Z,17.31
2023-05-21T12:53:03.404Z,17.37
2023-05-21T12:55:31.711Z,17.44
2023-05-21T12:58:04.529Z,17.53
2023-05-21T13:00:32.533Z,17.65
2023-05-21T13:03:01.241Z,17.94
2023-05-21T13:05:28.301Z,18.29
2023-05-21T13:07:55.176Z,18.22
2023-05-21T13:10:22.257Z,18.09
2023-05-21T13:12:49.105Z,18.07
2023-05-21T13:15:16.264Z,17.91
2023-05-21T13:17:43.233Z,17.83
2023-05-21T13:20:21.701Z,17.82
2023-05-21T13:22:51.147Z,17.80
2023-05-21T13:25:25.181Z,17.81
2023-05-21T13:27:53.441Z,17.89
2023-05-21T13:30:21.582Z,18.01
2023-05-21T13:32:49.058Z,18.00
2023-05-21T13:35:16.851Z,17.96
2023-05-21T13:37:44.773Z,17.87
2023-05-21T13:40:15.304Z,17.90
2023-05-21T13:42:49.347Z,17.94
2023-05-21T13:45:19.276Z,17.92
2023-05-21T13:47:47.431Z,17.85
2023-05-21T13:50:14.666Z,17.76
2023-05-21T13:52:41.819Z,17.66
2023-05-21T13:55:10.648Z,17.62
2023-05-21T13:57:37.994Z,17.60
2023-05-21T14:00:06.033Z,17.53
2023-05-21T14:02:34.727Z,17.47
2023-05-21T14:05:02.043Z,17.39
2023-05-21T14:07:32.643Z,17.31
2023-05-21T14:09:59.717Z,17.23
2023-05-21T14:12:27.181Z,17.18
2023-05-21T14:14:54.059Z,17.12
2023-05-21T14:17:21.175Z,17.08
2023-05-21T14:19:48.303Z,17.03
2023-05-21T14:22:15.194Z,16.97
2023-05-21T14:24:42.147Z,16.89
2023-05-21T14:27:08.991Z,16.82
2023-05-21T14:29:35.823Z,16.76
2023-05-21T14:32:02.786Z,16.70
2023-05-21T14:34:29.783Z,16.67
2023-05-21T14:36:56.670Z,16.70
2023-05-21T14:39:23.642Z,16.73
2023-05-21T14:41:50.590Z,16.74
2023-05-21T14:44:17.801Z,16.76
2023-05-21T14:46:44.642Z,16.79
2023-05-21T14:49:12.366Z,16.80
2023-05-21T14:51:39.193Z,16.79
2023-05-21T14:54:06.222Z,16.83
2023-05-21T14:56:33.142Z,16.86
2023-05-21T14:59:00.055Z,16.89
2023-05-21T15:01:27.029Z,16.89
2023-05-21T15:03:55.994Z,16.87
2023-05-21T15:06:22.939Z,16.82
2023-05-21T15:08:49.909Z,16.74
2023-05-21T15:11:16.794Z,16.68
2023-05-21T15:13:43.606Z,16.64
2023-05-21T15:16:10.494Z,16.67
2023-05-21T15:18:37.355Z,16.63
2023-05-21T15:21:05.272Z,16.65
2023-05-21T15:23:32.458Z,16.64
2023-05-21T15:25:59.401Z,16.62
2023-05-21T15:28:26.344Z,16.64
2023-05-21T15:30:53.293Z,16.64
2023-05-21T15:33:20.219Z,16.62
2023-05-21T15:35:47.134Z,16.61
2023-05-21T15:38:14.115Z,16.58
2023-05-21T15:40:44.339Z,16.55
2023-05-21T15:43:11.321Z,16.49
2023-05-21T15:45:38.899Z,16.46
2023-05-21T15:48:06.815Z,16.43
2023-05-21T15:50:35.791Z,16.42
2023-05-21T15:53:04.199Z,16.38
2023-05-21T15:55:34.083Z,16.34
2023-05-21T15:58:02.325Z,16.30
2023-05-21T16:00:29.528Z,16.24
2023-05-21T16:02:56.457Z,16.16
2023-05-21T16:05:23.436Z,16.12
2023-05-21T16:07:50.364Z,16.09
2023-05-21T16:10:17.470Z,16.06
2023-05-21T16:12:44.466Z,16.03
2023-05-21T16:15:11.570Z,15.98
2023-05-21T16:17:38.470Z,15.93
2023-05-21T16:20:06.600Z,15.90
2023-05-21T16:22:33.670Z,15.82
2023-05-21T16:25:00.542Z,15.76
2023-05-21T16:27:27.450Z,15.67
2023-05-21T16:29:54.435Z,15.60
2023-05-21T16:32:21.453Z,15.54
2023-05-21T16:34:48.662Z,15.50
2023-05-21T16:37:15.689Z,15.45
2023-05-21T16:39:42.512Z,15.40
2023-05-21T16:42:09.380Z,15.35
2023-05-21T16:44:37.978Z,15.30
2023-05-21T16:47:05.242Z,15.25
2023-05-21T16:49:32.103Z,15.22
2023-05-21T16:51:59.060Z,15.17
2023-05-21T16:54:27.030Z,15.15
2023-05-21T16:56:55.095Z,15.08
2023-05-21T16:59:21.975Z,15.01
2023-05-21T17:01:49.036Z,14.98
2023-05-21T17:04:16.408Z,14.93
2023-05-21T17:06:43.302Z,14.90
2023-05-21T17:09:10.116Z,14.86
2023-05-21T17:11:37.126Z,14.82
2023-05-21T17:14:03.990Z,14.75
2023-05-21T17:16:31.122Z,14.72
2023-05-21T17:18:58.219Z,14.71
2023-05-21T17:21:26.625Z,14.67
2023-05-21T17:23:53.535Z,14.63
2023-05-21T17:26:21.898Z,14.60
2023-05-21T17:28:48.755Z,14.52
2023-05-21T17:31:16.518Z,14.45
2023-05-21T17:33:43.799Z,14.38
2023-05-21T17:36:10.806Z,14.31
2023-05-21T17:38:37.720Z,14.26
2023-05-21T17:41:04.787Z,14.21
2023-05-21T17:43:32.156Z,14.15
2023-05-21T17:45:59.173Z,14.11
2023-05-21T17:48:26.297Z,14.08
2023-05-21T17:50:53.231Z,14.01
2023-05-21T17:53:20.152Z,13.94
2023-05-21T17:55:47.130Z,13.90
2023-05-21T17:58:14.096Z,13.84
2023-05-21T18:00:40.992Z,13.76
2023-05-21T18:03:08.006Z,13.69
2023-05-21T18:05:35.266Z,13.63
2023-05-21T18:08:02.916Z,13.57
2023-05-21T18:10:29.825Z,13.51
2023-05-21T18:12:56.772Z,13.44
2023-05-21T18:15:23.670Z,13.40
2023-05-21T18:17:50.641Z,13.31
2023-05-21T18:20:17.557Z,13.23
2023-05-21T18:22:45.100Z,13.18
2023-05-21T18:25:12.074Z,13.11
2023-05-21T18:27:38.977Z,13.01
2023-05-21T18:30:07.123Z,12.97
2023-05-21T18:32:34.855Z,12.92
2023-05-21T18:35:02.469Z,12.87
2023-05-21T18:37:30.734Z,12.81
2023-05-21T18:39:57.553Z,12.76
2023-05-21T18:42:26.488Z,12.68
2023-05-21T18:44:53.329Z,12.62
2023-05-21T18:47:20.216Z,12.55
2023-05-21T18:49:47.092Z,12.50
2023-05-21T18:52:14.116Z,12.43
2023-05-21T18:54:41.029Z,12.35
2023-05-21T18:57:08.092Z,12.29
2023-05-21T18:59:34.962Z,12.21
2023-05-21T19:02:04.388Z,12.16
2023-05-21T19:04:31.398Z,12.14
2023-05-21T19:06:58.493Z,12.09
2023-05-21T19:09:25.464Z,12.04
2023-05-21T19:11:52.306Z,12.00
2023-05-21T19:14:21.076Z,11.95
2023-05-21T19:16:48.028Z,11.87
2023-05-21T19:19:14.949Z,11.82
2023-05-21T19:21:41.855Z,11.77
2023-05-21T19:24:08.805Z,11.73
2023-05-21T19:26:35.678Z,11.69
2023-05-21T19:29:02.625Z,11.66
2023-05-21T19:31:29.575Z,11.61
2023-05-21T19:33:56.566Z,11.56
2023-05-21T19:36:24.396Z,11.52
2023-05-21T19:38:51.456Z,11.44
2023-05-21T19:41:19.919Z,11.45
2023-05-21T19:43:46.940Z,11.40
2023-05-21T19:46:17.216Z,11.38
2023-05-21T19:48:46.198Z,11.34
2023-05-21T19:51:13.635Z,11.31
2023-05-21T19:53:40.495Z,11.26
2023-05-21T19:56:08.023Z,11.21
2023-05-21T19:58:34.852Z,11.17
2023-05-21T20:01:03.584Z,11.14
2023-05-21T20:03:35.981Z,10.98
2023-05-21T20:06:03.676Z,10.97
2023-05-21T20:08:30.919Z,10.96
2023-05-21T20:10:57.835Z,10.95
2023-05-21T20:13:24.901Z,10.93
2023-05-21T20:15:51.870Z,10.89
2023-05-21T20:18:22.184Z,10.90
2023-05-21T20:20:49.333Z,10.88
2023-05-21T20:23:16.200Z,10.85
2023-05-21T20:25:43.176Z,10.84
2023-05-21T20:28:10.094Z,10.84
2023-05-21T20:30:59.026Z,10.82
2023-05-21T20:33:28.048Z,10.80
2023-05-21T20:35:54.887Z,10.76
2023-05-21T20:38:22.160Z,10.73
2023-05-21T20:40:49.096Z,10.71
2023-05-21T20:43:16.057Z,10.68
2023-05-21T20:45:43.771Z,10.67
2023-05-21T20:48:12.204Z,10.63
2023-05-21T20:50:40.982Z,10.62
2023-05-21T20:53:08.696Z,10.59
2023-05-21T20:55:35.648Z,10.58
2023-05-21T20:58:04.118Z,10.57
2023-05-21T21:00:34.194Z,10.58
2023-05-21T21:03:02.239Z,10.57
2023-05-21T21:05:29.291Z,10.56
2023-05-21T21:07:56.499Z,10.57
2023-05-21T21:10:23.342Z,10.52
2023-05-21T21:12:50.465Z,10.54
2023-05-21T21:15:17.556Z,10.55
2023-05-21T21:17:44.531Z,10.56
2023-05-21T21:20:13.731Z,10.55
2023-05-21T21:22:40.549Z,10.55
2023-05-21T21:25:07.821Z,10.56
2023-05-21T21:27:34.908Z,10.57
2023-05-21T21:30:02.079Z,10.57
2023-05-21T21:32:32.751Z,10.58
2023-05-21T21:34:59.680Z,10.59
2023-05-21T21:37:27.154Z,10.58
2023-05-21T21:39:54.005Z,10.59
2023-05-21T21:42:20.993Z,10.59
2023-05-21T21:44:48.360Z,10.59
2023-05-21T21:47:15.267Z,10.58
2023-05-21T21:49:42.175Z,10.58
2023-05-21T21:52:10.897Z,10.57
2023-05-21T21:54:37.728Z,10.58
2023-05-21T21:57:04.815Z,10.58
2023-05-21T21:59:31.846Z,10.56
2023-05-21T22:01:58.930Z,10.55
2023-05-21T22:04:25.832Z,10.53
2023-05-21T22:06:53.805Z,10.52
2023-05-21T22:09:22.673Z,10.47
2023-05-21T22:11:49.678Z,10.45
2023-05-21T22:14:18.342Z,10.43
2023-05-21T22:16:47.634Z,10.40
2023-05-21T22:19:16.185Z,10.40
2023-05-21T22:21:43.371Z,10.38
2023-05-21T22:24:20.655Z,10.39
2023-05-21T22:26:57.040Z,10.36
2023-05-21T22:29:23.921Z,10.35
2023-05-21T22:31:50.937Z,10.32
2023-05-21T22:34:17.777Z,10.29
2023-05-21T22:36:44.823Z,10.26
2023-05-21T22:39:11.667Z,10.23
2023-05-21T22:41:38.529Z,10.17
2023-05-21T22:44:05.490Z,10.12
2023-05-21T22:46:32.416Z,10.10
2023-05-21T22:49:00.267Z,10.08
2023-05-21T22:51:28.937Z,10.05
2023-05-21T22:53:55.788Z,10.00
2023-05-21T22:56:22.699Z,9.98
2023-05-21T22:58:49.619Z,9.95
2023-05-21T23:01:16.608Z,9.90
2023-05-21T23:03:43.529Z,9.88
2023-05-21T23:06:10.498Z,9.88
2023-05-21T23:08:37.383Z,9.88
2023-05-21T23:11:04.775Z,9.87
2023-05-21T23:13:31.621Z,9.87
2023-05-21T23:15:59.051Z,9.82
2023-05-21T23:18:26.229Z,9.79
2023-05-21T23:20:53.210Z,9.78
2023-05-21T23:23:20.084Z,9.77
2023-05-21T23:25:47.009Z,9.73
2023-05-21T23:28:13.876Z,9.70
2023-05-21T23:30:40.926Z,9.66
2023-05-21T23:33:07.974Z,9.66
2023-05-21T23:35:34.836Z,9.64
2023-05-21T23:38:01.805Z,9.61
2023-05-21T23:40:28.692Z,9.60
2023-05-21T23:42:55.689Z,9.55
2023-05-21T23:45:22.649Z,9.54
2023-05-21T23:47:49.545Z,9.52
2023-05-21T23:50:16.690Z,9.49
2023-05-21T23:52:43.935Z,9.46
2023-05-21T23:55:12.728Z,9.44
2023-05-21T23:57:39.512Z,9.35
